createdAt,value
2023-04-22T00:00:17.311Z,99.90
2023-04-22T00:02:45.754Z,99.90
2023-04-22T00:05:15.930Z,99.90
2023-04-22T00:07:46.021Z,99.90
2023-04-22T00:10:13.910Z,99.80
2023-04-22T00:12:41.264Z,99.90
2023-04-22T00:15:09.233Z,99.80
2023-04-22T00:17:36.528Z,99.90
2023-04-22T00:20:04.467Z,99.90
2023-04-22T00:22:32.758Z,99.90
2023-04-22T00:24:59.946Z,99.90
2023-04-22T00:27:27.178Z,99.90
2023-04-22T00:29:54.426Z,99.90
2023-04-22T00:32:22.724Z,99.90
2023-04-22T00:34:50.805Z,99.90
2023-04-22T00:37:18.342Z,99.90
2023-04-22T00:39:46.287Z,99.90
2023-04-22T00:42:14.046Z,99.90
2023-04-22T00:44:42.428Z,99.90
2023-04-22T00:47:10.384Z,99.90
2023-04-22T00:49:38.322Z,99.90
2023-04-22T00:52:05.909Z,99.90
2023-04-22T00:54:35.540Z,99.90
2023-04-22T00:57:05.409Z,99.90
2023-04-22T00:59:32.802Z,99.90
2023-04-22T01:02:00.635Z,99.90
2023-04-22T01:04:28.188Z,99.90
2023-04-22T01:06:55.602Z,99.90
2023-04-22T01:09:22.902Z,99.90
2023-04-22T01:11:50.398Z,99.90
2023-04-22T01:14:17.667Z,99.90
2023-04-22T01:16:46.375Z,99.90
2023-04-22T01:19:13.879Z,99.90
2023-04-22T01:21:45.060Z,99.90
2023-04-22T01:24:12.364Z,99.90
2023-04-22T01:26:39.991Z,99.90
2023-04-22T01:29:07.539Z,99.90
2023-04-22T01:31:35.541Z,99.90
2023-04-22T01:34:04.508Z,99.90
2023-04-22T01:36:32.847Z,99.90
2023-04-22T01:39:00.782Z,99.90
2023-04-22T01:41:28.926Z,99.90
2023-04-22T01:43:59.201Z,99.90
2023-04-22T01:46:28.289Z,99.90
2023-04-22T01:48:55.726Z,99.90
2023-04-22T01:51:25.971Z,99.90
2023-04-22T01:53:53.613Z,99.90
2023-04-22T01:56:24.696Z,99.90
2023-04-22T01:58:51.931Z,99.90
2023-04-22T02:01:20.056Z,99.90
2023-04-22T02:03:47.314Z,99.90
2023-04-22T02:06:14.706Z,99.90
2023-04-22T02:08:42.122Z,99.90
2023-04-22T02:11:09.374Z,99.90
2023-04-22T02:13:38.567Z,99.90
2023-04-22T02:16:08.295Z,99.90
2023-04-22T02:18:36.048Z,99.90
2023-04-22T02:21:03.720Z,99.90
2023-04-22T02:23:31.356Z,99.90
2023-04-22T02:25:58.727Z,99.90
2023-04-22T02:28:26.113Z,99.90
2023-04-22T02:30:53.484Z,99.90
2023-04-22T02:33:23.476Z,99.90
2023-04-22T02:35:52.287Z,99.90
2023-04-22T02:38:20.220Z,99.90
2023-04-22T02:40:47.569Z,99.90
2023-04-22T02:43:15.234Z,99.90
2023-04-22T02:45:42.492Z,99.90
2023-04-22T02:48:11.636Z,99.90
2023-04-22T02:50:38.900Z,99.90
2023-04-22T02:53:06.390Z,99.90
2023-04-22T02:55:33.689Z,99.90
2023-04-22T02:58:01.106Z,99.90
2023-04-22T03:00:28.513Z,99.90
2023-04-22T03:02:56.172Z,99.90
2023-04-22T03:05:30.219Z,99.90
2023-04-22T03:07:57.535Z,99.90
2023-04-22T03:10:24.768Z,99.90
2023-04-22T03:12:52.217Z,99.90
2023-04-22T03:15:21.701Z,99.90
2023-04-22T03:17:49.696Z,99.90
2023-04-22T03:20:20.061Z,99.90
2023-04-22T03:22:47.929Z,99.90
2023-04-22T03:25:16.740Z,99.90
2023-04-22T03:27:50.113Z,99.90
2023-04-22T03:30:17.289Z,99.90
2023-04-22T03:32:44.753Z,99.90
2023-04-22T03:35:21.287Z,99.90
2023-04-22T03:37:50.940Z,99.90
2023-04-22T03:40:23.163Z,99.90
2023-04-22T03:42:50.489Z,99.90
2023-04-22T03:45:20.197Z,99.90
2023-04-22T03:47:55.790Z,99.90
2023-04-22T03:50:29.774Z,99.90
2023-04-22T03:52:58.605Z,99.90
2023-04-22T03:55:25.749Z,99.90
2023-04-22T03:57:54.627Z,99.90
2023-04-22T04:00:21.987Z,99.90
2023-04-22T04:03:00.279Z,99.90
2023-04-22T04:05:28.428Z,99.90
2023-04-22T04:07:56.671Z,99.90
2023-04-22T04:10:25.923Z,99.90
2023-04-22T04:12:55.157Z,99.90
2023-04-22T04:15:25.123Z,99.90
2023-04-22T04:17:53.218Z,99.90
2023-04-22T04:20:21.601Z,99.90
2023-04-22T04:22:48.922Z,99.90
2023-04-22T04:25:16.227Z,99.90
2023-04-22T04:27:47.672Z,99.90
2023-04-22T04:30:16.427Z,99.90
2023-04-22T04:32:51.290Z,99.90
2023-04-22T04:35:20.364Z,99.90
2023-04-22T04:37:53.969Z,99.90
2023-04-22T04:40:22.015Z,99.90
2023-04-22T04:43:02.636Z,99.90
2023-04-22T04:45:39.156Z,99.90
2023-04-22T04:48:08.038Z,99.90
2023-04-22T04:50:38.358Z,99.90
2023-04-22T04:53:07.257Z,99.90
2023-04-22T04:55:39.076Z,99.90
2023-04-22T04:58:12.545Z,99.90
2023-04-22T05:00:39.827Z,99.90
2023-04-22T05:03:08.901Z,99.90
2023-04-22T05:05:36.620Z,99.90
2023-04-22T05:08:03.831Z,99.90
2023-04-22T05:10:32.271Z,99.90
2023-04-22T05:13:00.403Z,99.90
2023-04-22T05:15:29.977Z,99.90
2023-04-22T05:17:57.606Z,99.90
2023-04-22T05:20:25.781Z,99.90
2023-04-22T05:22:53.308Z,99.90
2023-04-22T05:25:21.012Z,99.90
2023-04-22T05:27:58.116Z,99.90
2023-04-22T05:30:29.223Z,99.90
2023-04-22T05:32:56.766Z,99.90
2023-04-22T05:35:24.033Z,99.90
2023-04-22T05:37:51.306Z,99.90
2023-04-22T05:40:19.171Z,99.90
2023-04-22T05:42:47.865Z,99.90
2023-04-22T05:45:15.814Z,99.90
2023-04-22T05:47:43.340Z,99.90
2023-04-22T05:50:11.300Z,99.90
2023-04-22T05:52:52.690Z,99.90
2023-04-22T05:55:24.486Z,99.90
2023-04-22T05:57:51.901Z,99.90
2023-04-22T06:00:30.348Z,99.90
2023-04-22T06:03:15.134Z,99.90
2023-04-22T06:05:44.321Z,99.90
2023-04-22T06:08:11.658Z,99.90
2023-04-22T06:10:38.905Z,99.90
2023-04-22T06:13:06.421Z,99.90
2023-04-22T06:15:34.876Z,99.90
2023-04-22T06:18:02.592Z,99.90
2023-04-22T06:20:32.699Z,99.90
2023-04-22T06:23:00.036Z,99.90
2023-04-22T06:25:27.432Z,99.90
2023-04-22T06:27:54.701Z,99.90
2023-04-22T06:30:23.611Z,99.90
2023-04-22T06:32:52.764Z,99.90
2023-04-22T06:35:21.266Z,99.90
2023-04-22T06:37:49.260Z,99.90
2023-04-22T06:40:17.137Z,99.90
2023-04-22T06:43:03.277Z,99.90
2023-04-22T06:45:50.967Z,99.90
2023-04-22T06:48:39.405Z,99.90
2023-04-22T06:51:33.569Z,99.90
2023-04-22T06:54:01.953Z,99.90
2023-04-22T06:56:29.371Z,99.90
2023-04-22T06:58:56.601Z,99.90
2023-04-22T07:01:24.088Z,99.90
2023-04-22T07:03:51.772Z,99.90
2023-04-22T07:06:20.498Z,99.90
2023-04-22T07:08:47.920Z,99.90
2023-04-22T07:11:15.556Z,99.90
2023-04-22T07:13:51.978Z,99.90
2023-04-22T07:16:19.562Z,99.90
2023-04-22T07:18:46.790Z,99.90
2023-04-22T07:21:14.028Z,99.90
2023-04-22T07:23:41.314Z,99.90
2023-04-22T07:26:08.514Z,99.90
2023-04-22T07:28:35.818Z,99.90
2023-04-22T07:31:03.508Z,99.90
2023-04-22T07:33:30.892Z,99.90
2023-04-22T07:35:58.084Z,99.90
2023-04-22T07:38:25.767Z,99.90
2023-04-22T07:40:53.203Z,99.90
2023-04-22T07:43:20.519Z,99.90
2023-04-22T07:45:47.743Z,99.90
2023-04-22T07:48:15.105Z,99.90
2023-04-22T07:50:42.391Z,99.90
2023-04-22T07:53:10.885Z,99.90
2023-04-22T07:55:38.230Z,99.90
2023-04-22T07:58:06.704Z,99.90
2023-04-22T08:00:35.449Z,99.90
2023-04-22T08:03:03.990Z,99.90
2023-04-22T08:05:31.379Z,99.90
2023-04-22T08:07:58.893Z,99.90
2023-04-22T08:10:26.393Z,99.90
2023-04-22T08:12:53.699Z,99.90
2023-04-22T08:15:20.849Z,99.90
2023-04-22T08:17:49.102Z,99.90
2023-04-22T08:20:18.104Z,99.90
2023-04-22T08:22:45.710Z,99.90
2023-04-22T08:25:13.025Z,99.90
2023-04-22T08:27:40.499Z,99.90
2023-04-22T08:30:08.602Z,99.90
2023-04-22T08:32:36.036Z,99.90
2023-04-22T08:35:05.453Z,99.90
2023-04-22T08:37:34.668Z,99.90
2023-04-22T08:40:02.244Z,99.90
2023-04-22T08:42:31.638Z,99.90
2023-04-22T08:44:58.929Z,99.90
2023-04-22T08:47:27.085Z,99.90
2023-04-22T08:49:56.461Z,99.90
2023-04-22T08:52:23.703Z,99.90
2023-04-22T08:54:51.297Z,99.90
2023-04-22T08:57:19.352Z,99.90
2023-04-22T08:59:46.857Z,99.90
2023-04-22T09:02:19.328Z,99.90
2023-04-22T09:04:52.535Z,99.90
2023-04-22T09:07:25.248Z,99.90
2023-04-22T09:09:54.801Z,99.90
2023-04-22T09:12:23.316Z,99.90
2023-04-22T09:14:51.378Z,99.90
2023-04-22T09:17:30.140Z,99.90
2023-04-22T09:20:05.788Z,99.90
2023-04-22T09:22:44.949Z,99.90
2023-04-22T09:25:32.974Z,99.90
2023-04-22T09:28:00.313Z,99.90
2023-04-22T09:30:38.796Z,99.90
2023-04-22T09:33:07.340Z,99.90
2023-04-22T09:35:37.637Z,99.90
2023-04-22T09:38:09.976Z,99.90
2023-04-22T09:40:38.788Z,99.90
2023-04-22T09:43:08.590Z,99.90
2023-04-22T09:45:37.374Z,99.90
2023-04-22T09:48:11.990Z,99.50
2023-04-22T09:50:41.256Z,99.40
2023-04-22T09:53:10.875Z,99.10
2023-04-22T09:55:41.493Z,99.00
2023-04-22T09:58:13.446Z,98.60
2023-04-22T10:00:43.930Z,98.00
2023-04-22T10:03:11.461Z,97.90
2023-04-22T10:05:39.336Z,98.50
2023-04-22T10:08:07.997Z,96.80
2023-04-22T10:10:36.287Z,96.10
2023-04-22T10:13:07.097Z,95.40
2023-04-22T10:15:39.305Z,95.60
2023-04-22T10:18:12.012Z,94.90
2023-04-22T10:20:42.271Z,94.90
2023-04-22T10:23:20.377Z,95.00
2023-04-22T10:25:52.295Z,95.10
2023-04-22T10:28:21.871Z,94.40
2023-04-22T10:30:49.777Z,93.40
2023-04-22T10:33:29.065Z,92.80
2023-04-22T10:36:17.890Z,91.60
2023-04-22T10:38:51.104Z,90.40
2023-04-22T10:41:23.808Z,91.00
2023-04-22T10:43:59.753Z,87.70
2023-04-22T10:46:40.259Z,84.70
2023-04-22T10:49:09.242Z,80.90
2023-04-22T10:51:45.104Z,79.60
2023-04-22T10:54:30.580Z,78.40
2023-04-22T10:57:05.228Z,77.90
2023-04-22T10:59:53.881Z,78.00
2023-04-22T11:02:22.742Z,76.90
2023-04-22T11:04:52.299Z,73.20
2023-04-22T11:07:30.121Z,71.50
2023-04-22T11:10:07.052Z,71.70
2023-04-22T11:12:42.056Z,70.60
2023-04-22T11:15:14.089Z,72.40
2023-04-22T11:17:46.639Z,68.70
2023-04-22T11:20:18.386Z,67.80
2023-04-22T11:22:56.987Z,67.40
2023-04-22T11:25:25.793Z,66.00
2023-04-22T11:27:54.914Z,66.50
2023-04-22T11:30:24.136Z,66.40
2023-04-22T11:32:56.916Z,66.30
2023-04-22T11:35:27.102Z,65.50
2023-04-22T11:38:13.483Z,65.30
2023-04-22T11:40:46.222Z,65.70
2023-04-22T11:43:14.454Z,65.30
2023-04-22T11:45:42.463Z,64.10
2023-04-22T11:48:11.937Z,63.30
2023-04-22T11:50:41.249Z,63.40
2023-04-22T11:53:15.917Z,61.90
2023-04-22T11:55:45.195Z,60.80
2023-04-22T11:58:15.493Z,62.00
2023-04-22T12:00:53.641Z,61.00
2023-04-22T12:03:29.205Z,61.20
2023-04-22T12:06:04.998Z,61.30
2023-04-22T12:08:35.639Z,60.40
2023-04-22T12:11:05.116Z,58.10
2023-04-22T12:13:45.631Z,59.80
2023-04-22T12:16:19.765Z,57.90
2023-04-22T12:18:53.194Z,56.80
2023-04-22T12:21:23.712Z,57.00
2023-04-22T12:23:58.130Z,55.90
2023-04-22T12:26:27.631Z,55.70
2023-04-22T12:28:58.050Z,55.40
2023-04-22T12:31:26.017Z,55.00
2023-04-22T12:33:54.178Z,53.80
2023-04-22T12:36:21.735Z,53.80
2023-04-22T12:38:49.755Z,53.20
2023-04-22T12:41:17.301Z,53.70
2023-04-22T12:43:44.625Z,53.00
2023-04-22T12:46:12.133Z,51.50
2023-04-22T12:48:39.371Z,51.10
2023-04-22T12:51:07.162Z,50.70
2023-04-22T12:53:35.185Z,50.50
2023-04-22T12:56:02.721Z,49.40
2023-04-22T12:58:30.076Z,48.10
2023-04-22T13:00:57.512Z,47.60
2023-04-22T13:03:24.939Z,45.30
2023-04-22T13:05:53.592Z,42.20
2023-04-22T13:08:21.271Z,39.80
2023-04-22T13:10:49.037Z,37.30
2023-04-22T13:13:18.973Z,35.10
2023-04-22T13:15:50.116Z,34.00
2023-04-22T13:18:17.670Z,32.70
2023-04-22T13:23:13.441Z,30.30
2023-04-22T13:25:40.780Z,31.10
2023-04-22T13:28:08.034Z,28.90
2023-04-22T13:30:36.128Z,27.20
2023-04-22T13:33:03.474Z,26.90
2023-04-22T13:35:31.414Z,26.50
2023-04-22T13:37:58.870Z,26.80
2023-04-22T13:44:58.152Z,26.60
2023-04-22T13:47:32.323Z,25.90
2023-04-22T13:50:01.857Z,25.90
2023-04-22T13:52:30.913Z,26.30
2023-04-22T13:54:58.265Z,27.00
2023-04-22T13:57:26.112Z,26.70
2023-04-22T13:59:53.440Z,27.60
2023-04-22T14:02:20.781Z,27.90
2023-04-22T14:04:48.107Z,28.30
2023-04-22T14:07:15.518Z,28.20
2023-04-22T14:09:42.969Z,28.70
2023-04-22T14:12:11.329Z,28.10
2023-04-22T14:14:38.933Z,28.10
2023-04-22T14:17:06.218Z,27.60
2023-04-22T14:19:33.727Z,27.60
2023-04-22T14:22:00.865Z,27.60
2023-04-22T14:24:28.738Z,27.90
2023-04-22T14:26:59.628Z,28.00
2023-04-22T14:29:26.862Z,28.70
2023-04-22T14:31:54.186Z,28.60
2023-04-22T14:34:21.562Z,28.90
2023-04-22T14:36:48.855Z,29.40
2023-04-22T14:39:16.405Z,30.00
2023-04-22T14:41:43.721Z,29.40
2023-04-22T14:44:11.236Z,29.30
2023-04-22T14:46:38.482Z,29.00
2023-04-22T14:49:05.888Z,29.50
2023-04-22T14:51:33.964Z,30.00
2023-04-22T14:54:01.150Z,29.30
2023-04-22T14:56:28.581Z,29.90
2023-04-22T14:58:55.801Z,31.20
2023-04-22T15:01:23.199Z,32.60
2023-04-22T15:03:52.196Z,32.80
2023-04-22T15:06:19.625Z,32.10
2023-04-22T15:08:47.195Z,31.70
2023-04-22T15:11:14.415Z,31.20
2023-04-22T15:13:41.592Z,30.40
2023-04-22T15:16:09.176Z,29.80
2023-04-22T15:18:36.483Z,30.00
2023-04-22T15:21:05.870Z,30.00
2023-04-22T15:23:33.184Z,29.70
2023-04-22T15:26:00.472Z,29.90
2023-04-22T15:28:27.937Z,29.20
2023-04-22T15:30:55.141Z,28.70
2023-04-22T15:33:22.343Z,28.50
2023-04-22T15:35:50.476Z,28.50
2023-04-22T15:38:17.887Z,28.30
2023-04-22T15:40:45.328Z,28.60
2023-04-22T15:43:12.551Z,29.30
2023-04-22T15:45:39.747Z,29.80
2023-04-22T15:48:08.400Z,30.50
2023-04-22T15:50:36.466Z,30.80
2023-04-22T15:53:04.562Z,31.80
2023-04-22T15:55:31.898Z,32.30
2023-04-22T15:57:59.814Z,32.30
2023-04-22T16:00:27.427Z,33.00
2023-04-22T16:02:55.733Z,32.80
2023-04-22T16:05:25.041Z,33.30
2023-04-22T16:07:54.091Z,33.30
2023-04-22T16:10:21.706Z,33.40
2023-04-22T16:12:49.499Z,33.50
2023-04-22T16:15:17.836Z,33.60
2023-04-22T16:17:45.459Z,33.80
2023-04-22T16:20:12.711Z,33.40
2023-04-22T16:22:39.987Z,33.70
2023-04-22T16:25:08.049Z,33.60
2023-04-22T16:27:35.460Z,33.50
2023-04-22T16:30:02.681Z,33.40
2023-04-22T16:32:32.762Z,33.60
2023-04-22T16:35:00.271Z,33.70
2023-04-22T16:37:27.608Z,33.50
2023-04-22T16:39:55.346Z,33.30
2023-04-22T16:42:22.669Z,33.50
2023-04-22T16:44:51.375Z,33.50
2023-04-22T16:47:19.373Z,33.50
2023-04-22T16:49:46.998Z,33.70
2023-04-22T16:52:14.208Z,34.10
2023-04-22T16:54:42.788Z,34.40
2023-04-22T16:57:11.518Z,34.40
2023-04-22T16:59:39.550Z,34.70
2023-04-22T17:02:07.074Z,34.70
2023-04-22T17:04:34.621Z,34.90
2023-04-22T17:07:02.020Z,35.60
2023-04-22T17:09:29.309Z,36.20
2023-04-22T17:11:57.008Z,36.60
2023-04-22T17:14:25.021Z,37.00
2023-04-22T17:16:52.509Z,37.30
2023-04-22T17:19:20.045Z,37.90
2023-04-22T17:21:47.509Z,38.30
2023-04-22T17:24:14.877Z,38.60
2023-04-22T17:26:42.187Z,39.40
2023-04-22T17:29:09.522Z,39.20
2023-04-22T17:31:36.775Z,39.40
2023-04-22T17:34:04.318Z,39.80
2023-04-22T17:36:31.911Z,40.10
2023-04-22T17:38:59.481Z,40.50
2023-04-22T17:41:26.801Z,40.40
2023-04-22T17:43:54.975Z,40.90
2023-04-22T17:46:22.506Z,41.20
2023-04-22T17:48:49.814Z,41.50
2023-04-22T17:51:17.062Z,41.70
2023-04-22T17:53:44.370Z,41.90
2023-04-22T17:56:11.799Z,42.10
2023-04-22T17:58:39.342Z,42.40
2023-04-22T18:01:07.437Z,42.50
2023-04-22T18:03:35.223Z,43.00
2023-04-22T18:06:02.916Z,43.20
2023-04-22T18:08:30.940Z,43.50
2023-04-22T18:10:58.457Z,44.00
2023-04-22T18:13:25.809Z,44.90
2023-04-22T18:15:53.092Z,45.80
2023-04-22T18:18:20.503Z,46.00
2023-04-22T18:20:48.360Z,45.80
2023-04-22T18:23:15.928Z,46.10
2023-04-22T18:25:43.686Z,46.10
2023-04-22T18:28:10.963Z,46.20
2023-04-22T18:30:39.107Z,46.30
2023-04-22T18:33:06.716Z,46.80
2023-04-22T18:35:35.697Z,47.00
2023-04-22T18:38:03.089Z,47.50
2023-04-22T18:40:30.350Z,47.00
2023-04-22T18:42:57.885Z,47.30
2023-04-22T18:45:25.385Z,47.30
2023-04-22T18:47:52.948Z,47.40
2023-04-22T18:50:21.112Z,49.00
2023-04-22T18:52:48.454Z,48.60
2023-04-22T18:55:15.676Z,47.60
2023-04-22T18:57:43.742Z,47.80
2023-04-22T19:00:13.341Z,46.80
2023-04-22T19:02:42.541Z,46.70
2023-04-22T19:05:10.307Z,46.90
2023-04-22T19:07:38.442Z,48.10
2023-04-22T19:10:09.416Z,48.10
2023-04-22T19:12:36.628Z,48.20
2023-04-22T19:15:10.286Z,50.00
2023-04-22T19:17:38.703Z,50.60
2023-04-22T19:20:06.839Z,51.10
2023-04-22T19:22:34.280Z,51.60
2023-04-22T19:25:05.945Z,52.60
2023-04-22T19:27:34.535Z,53.80
2023-04-22T19:30:02.044Z,53.80
2023-04-22T19:32:33.278Z,53.50
2023-04-22T19:35:03.136Z,53.70
2023-04-22T19:37:31.455Z,53.70
2023-04-22T19:39:58.782Z,55.30
2023-04-22T19:42:27.460Z,55.90
2023-04-22T19:44:54.978Z,56.40
2023-04-22T19:47:22.371Z,57.10
2023-04-22T19:49:50.090Z,57.70
2023-04-22T19:52:18.686Z,58.40
2023-04-22T19:54:47.874Z,58.70
2023-04-22T19:57:15.682Z,59.10
2023-04-22T19:59:44.861Z,59.60
2023-04-22T20:02:18.244Z,60.00
2023-04-22T20:04:46.031Z,60.80
2023-04-22T20:07:14.158Z,61.30
2023-04-22T20:09:43.005Z,61.60
2023-04-22T20:12:10.464Z,62.20
2023-04-22T20:14:38.716Z,63.10
2023-04-22T20:17:06.278Z,63.30
2023-04-22T20:19:34.098Z,63.70
2023-04-22T20:22:02.985Z,63.60
2023-04-22T20:24:35.574Z,64.60
2023-04-22T20:27:04.256Z,65.20
2023-04-22T20:29:32.535Z,65.90
2023-04-22T20:31:59.938Z,67.10
2023-04-22T20:34:27.575Z,68.40
2023-04-22T20:36:56.136Z,69.80
2023-04-22T20:39:24.654Z,71.20
2023-04-22T20:41:56.422Z,72.70
2023-04-22T20:44:23.664Z,74.40
2023-04-22T20:46:51.394Z,75.70
2023-04-22T20:49:18.740Z,76.60
2023-04-22T20:51:46.196Z,77.60
2023-04-22T20:54:28.628Z,78.80
2023-04-22T20:56:57.862Z,79.50
2023-04-22T20:59:25.257Z,80.70
2023-04-22T21:01:54.665Z,81.50
2023-04-22T21:04:24.041Z,82.80
2023-04-22T21:06:52.585Z,83.60
2023-04-22T21:09:21.155Z,84.30
2023-04-22T21:11:51.231Z,84.60
2023-04-22T21:14:19.224Z,85.00
2023-04-22T21:17:25.916Z,86.30
2023-04-22T21:20:05.201Z,87.90
2023-04-22T21:22:35.458Z,89.20
2023-04-22T21:25:04.835Z,90.00
2023-04-22T21:27:32.521Z,90.20
2023-04-22T21:30:00.418Z,90.50
2023-04-22T21:32:29.493Z,90.70
2023-04-22T21:34:57.003Z,90.80
2023-04-22T21:37:24.500Z,91.00
2023-04-22T21:39:51.746Z,91.10
2023-04-22T21:42:19.024Z,91.30
2023-04-22T21:44:49.881Z,91.60
2023-04-22T21:47:17.771Z,91.70
2023-04-22T21:49:46.676Z,92.00
2023-04-22T21:52:15.028Z,92.50
2023-04-22T21:54:42.526Z,92.60
2023-04-22T21:57:10.030Z,91.40
2023-04-22T21:59:37.261Z,90.80
2023-04-22T22:02:04.613Z,90.90
2023-04-22T22:04:32.156Z,90.90
2023-04-22T22:06:59.505Z,90.70
2023-04-22T22:09:26.764Z,90.50
2023-04-22T22:11:53.922Z,90.60
2023-04-22T22:14:21.189Z,90.80
2023-04-22T22:16:50.007Z,91.30
2023-04-22T22:19:17.516Z,91.40
2023-04-22T22:21:44.647Z,91.80
2023-04-22T22:24:12.159Z,92.10
2023-04-22T22:26:42.887Z,92.50
2023-04-22T22:29:15.466Z,92.60
2023-04-22T22:31:47.447Z,92.40
2023-04-22T22:34:14.818Z,92.40
2023-04-22T22:36:45.034Z,92.90
2023-04-22T22:39:14.748Z,92.90
2023-04-22T22:41:44.048Z,93.00
2023-04-22T22:44:11.445Z,93.20
2023-04-22T22:46:40.397Z,93.30
2023-04-22T22:49:07.849Z,93.60
2023-04-22T22:51:37.610Z,94.30
2023-04-22T22:54:05.571Z,94.30
2023-04-22T22:56:32.813Z,94.60
2023-04-22T22:59:00.657Z,94.70
2023-04-22T23:01:28.191Z,95.00
2023-04-22T23:03:56.111Z,95.30
2023-04-22T23:06:23.634Z,95.80
2023-04-22T23:08:51.201Z,96.10
2023-04-22T23:11:18.779Z,96.20
2023-04-22T23:13:46.464Z,96.30
2023-04-22T23:16:13.799Z,96.50
2023-04-22T23:18:42.766Z,96.60
2023-04-22T23:21:12.119Z,96.60
2023-04-22T23:23:40.771Z,96.30
2023-04-22T23:26:08.655Z,96.50
2023-04-22T23:28:36.415Z,96.70
2023-04-22T23:31:06.678Z,97.10
2023-04-22T23:33:36.455Z,97.40
2023-04-22T23:36:06.382Z,97.50
2023-04-22T23:38:33.548Z,97.50
2023-04-22T23:41:00.950Z,97.40
2023-04-22T23:43:28.261Z,97.30
2023-04-22T23:45:55.722Z,97.10
2023-04-22T23:48:23.215Z,96.90
2023-04-22T23:50:50.603Z,96.80
2023-04-22T23:53:17.910Z,96.60
2023-04-22T23:55:45.449Z,96.60
2023-04-22T23:58:13.065Z,96.80
